createdAt,value
2018-09-02T05:58:36.273Z,15.11
2018-09-02T06:00:04.061Z,15.28
2018-09-02T06:01:30.545Z,15.42
2018-09-02T06:02:56.210Z,15.56
2018-09-02T06:04:23.575Z,15.56
2018-09-02T06:05:50.194Z,15.58
2018-09-02T06:07:18.570Z,15.63
2018-09-02T06:08:43.986Z,15.73
2018-09-02T06:10:12.529Z,15.75
2018-09-02T06:11:38.904Z,15.84
2018-09-02T06:13:04.287Z,16.06
2018-09-02T06:14:32.883Z,16.36
2018-09-02T06:15:59.434Z,16.64
2018-09-02T06:17:25.920Z,16.93
2018-09-02T06:18:53.116Z,17.09
2018-09-02T06:20:20.605Z,17.20
2018-09-02T06:21:46.919Z,17.24
2018-09-02T06:23:15.400Z,17.31
2018-09-02T06:24:40.682Z,17.36
2018-09-02T06:26:07.190Z,17.37
2018-09-02T06:27:33.600Z,17.40
2018-09-02T06:29:01.855Z,17.48
2018-09-02T06:30:28.241Z,17.56
2018-09-02T06:31:56.441Z,17.60
2018-09-02T06:33:23.921Z,17.54
2018-09-02T06:34:51.421Z,17.50
2018-09-02T06:36:18.819Z,17.46
2018-09-02T06:37:46.328Z,17.44
2018-09-02T06:39:13.723Z,17.40
2018-09-02T08:29:32.379Z,20.33
2018-09-02T08:30:58.682Z,20.33
2018-09-02T08:32:54.848Z,20.35
2018-09-02T08:34:20.856Z,20.35
2018-09-02T08:35:49.299Z,20.34
2018-09-02T08:37:20.926Z,20.24
2018-09-02T08:38:42.362Z,20.14
2018-09-02T08:49:52.286Z,20.19
2018-09-02T08:52:44.119Z,20.15
2018-09-02T08:54:11.368Z,20.14
2018-09-02T08:55:38.952Z,20.07
2018-09-02T08:57:05.192Z,20.05
2018-09-02T08:58:32.507Z,20.02
2018-09-02T09:00:00.050Z,19.99
2018-09-02T09:05:00.505Z,20.12
2018-09-02T09:06:27.831Z,20.17
2018-09-02T09:07:55.388Z,20.20
2018-09-02T09:09:21.764Z,20.22
2018-09-02T09:10:47.725Z,20.24
2018-09-02T09:12:25.945Z,20.30
2018-09-02T09:13:52.346Z,20.32
2018-09-02T09:15:19.807Z,20.32
2018-09-02T09:16:46.304Z,20.32
2018-09-02T09:18:13.663Z,20.30
2018-09-02T09:19:41.249Z,20.27
2018-09-02T09:21:08.758Z,20.24
2018-09-02T09:22:36.248Z,20.22
2018-09-02T09:24:04.592Z,20.23
2018-09-02T09:25:31.781Z,20.25
2018-09-02T09:26:57.941Z,20.29
2018-09-02T09:28:25.298Z,20.36
2018-09-02T09:30:02.603Z,20.45
2018-09-02T09:31:28.630Z,20.47
2018-09-02T09:32:54.675Z,20.50
2018-09-02T09:34:23.147Z,20.53
2018-09-02T09:35:50.803Z,20.60
2018-09-02T09:37:37.419Z,20.71
2018-09-02T09:38:56.580Z,20.76
2018-09-02T09:40:24.043Z,20.79
2018-09-02T09:41:57.319Z,20.80
2018-09-02T09:43:24.620Z,20.81
2018-09-02T09:44:52.157Z,20.81
2018-09-02T09:46:20.789Z,20.81
2018-09-02T09:47:47.068Z,20.78
2018-09-02T09:49:14.612Z,20.71
2018-09-02T09:50:41.830Z,20.66
2018-09-02T09:52:10.325Z,20.66
2018-09-02T09:53:36.764Z,20.77
2018-09-02T09:55:05.361Z,20.95
2018-09-02T09:56:31.139Z,21.12
2018-09-02T09:57:58.054Z,21.29
2018-09-02T09:59:25.655Z,21.46
2018-09-02T10:00:53.961Z,21.58
2018-09-02T10:02:20.561Z,21.61
2018-09-02T10:03:47.338Z,21.64
2018-09-02T10:05:13.722Z,21.68
2018-09-02T10:06:41.189Z,21.66
2018-09-02T10:08:08.464Z,21.60
2018-09-02T10:09:35.143Z,21.53
2018-09-02T10:11:02.629Z,21.45
2018-09-02T10:12:30.049Z,21.44
2018-09-02T10:13:56.645Z,21.54
2018-09-02T10:15:25.251Z,21.65
2018-09-02T10:16:51.773Z,21.73
2018-09-02T10:18:19.214Z,21.75
2018-09-02T10:19:46.642Z,21.68
2018-09-02T10:21:14.025Z,21.63
2018-09-02T10:22:40.468Z,21.62
2018-09-02T10:24:07.831Z,21.63
2018-09-02T10:25:35.365Z,21.64
2018-09-02T10:27:02.871Z,21.65
2018-09-02T10:28:30.103Z,21.61
2018-09-02T10:29:57.402Z,21.64
2018-09-02T10:31:25.059Z,21.63
2018-09-02T10:32:51.475Z,21.56
2018-09-02T10:34:19.065Z,21.59
2018-09-02T10:35:46.435Z,21.61
2018-09-02T10:37:15.026Z,21.72
2018-09-02T10:38:40.510Z,21.89
2018-09-02T10:40:08.017Z,22.01
2018-09-02T10:41:34.708Z,22.03
2018-09-02T10:43:02.046Z,21.99
2018-09-02T10:44:30.160Z,22.02
2018-09-02T10:45:56.538Z,22.05
2018-09-02T10:47:22.977Z,22.15
2018-09-02T10:48:49.497Z,22.22
2018-09-02T10:50:16.809Z,22.23
2018-09-02T10:51:44.467Z,22.22
2018-09-02T10:53:12.037Z,22.16
2018-09-02T10:54:39.478Z,22.13
2018-09-02T10:56:07.034Z,22.11
2018-09-02T10:57:33.570Z,22.15
2018-09-02T10:59:01.015Z,22.24
2018-09-02T11:00:28.661Z,22.33
2018-09-02T11:01:55.002Z,22.42
2018-09-02T11:03:22.672Z,22.55
2018-09-02T11:04:50.188Z,22.68
2018-09-02T11:06:17.412Z,22.83
2018-09-02T11:07:45.242Z,22.91
2018-09-02T11:09:14.649Z,22.91
2018-09-02T11:10:38.931Z,22.88
2018-09-02T11:12:07.401Z,22.96
2018-09-02T11:13:35.110Z,23.00
2018-09-02T11:15:02.350Z,23.03
2018-09-02T11:16:28.286Z,22.97
2018-09-02T11:17:56.904Z,22.88
2018-09-02T11:19:23.273Z,22.81
2018-09-02T11:20:49.740Z,22.72
2018-09-02T11:22:15.248Z,22.62
2018-09-02T11:23:43.673Z,22.51
2018-09-02T11:25:10.219Z,22.37
2018-09-02T11:26:37.613Z,22.33
2018-09-02T11:28:03.943Z,22.31
2018-09-02T11:29:31.466Z,22.16
2018-09-02T11:30:59.843Z,22.06
2018-09-02T11:32:24.899Z,22.21
2018-09-02T11:33:52.502Z,22.36
2018-09-02T11:35:21.044Z,22.56
2018-09-02T11:36:47.574Z,22.84
2018-09-02T11:38:15.141Z,23.06
2018-09-02T11:39:42.529Z,23.15
2018-09-02T11:41:11.182Z,23.33
2018-09-02T11:42:37.652Z,23.50
2018-09-02T11:44:05.336Z,23.83
2018-09-02T11:45:32.442Z,24.14
2018-09-02T11:47:00.565Z,24.51
2018-09-02T11:48:26.404Z,24.80
2018-09-02T11:49:55.223Z,24.79
2018-09-02T11:51:21.728Z,24.72
2018-09-02T11:52:49.128Z,24.18
2018-09-02T11:54:16.765Z,23.91
2018-09-02T11:55:44.379Z,23.68
2018-09-02T11:57:12.030Z,23.58
2018-09-02T11:58:40.625Z,23.32
2018-09-02T12:00:08.020Z,23.19
2018-09-02T12:01:34.077Z,23.06
2018-09-02T12:03:02.147Z,22.94
2018-09-02T12:04:28.472Z,22.92
2018-09-02T12:05:57.083Z,22.96
2018-09-02T12:07:22.634Z,22.95
2018-09-02T12:08:49.883Z,22.90
2018-09-02T12:10:17.478Z,22.89
2018-09-02T12:11:44.967Z,23.00
2018-09-02T12:13:12.316Z,23.29
2018-09-02T12:14:38.929Z,23.48
2018-09-02T12:16:06.370Z,23.53
2018-09-02T12:17:33.650Z,23.52
2018-09-02T12:19:00.827Z,23.55
2018-09-02T12:20:30.850Z,23.60
2018-09-02T12:21:54.187Z,23.58
2018-09-02T12:23:21.872Z,23.66
2018-09-02T12:24:49.484Z,23.84
2018-09-02T12:26:17.042Z,24.15
2018-09-02T12:27:43.822Z,24.27
2018-09-02T12:29:12.340Z,24.55
2018-09-02T12:30:40.055Z,24.72
2018-09-02T12:32:07.016Z,24.92
2018-09-02T12:33:34.680Z,25.10
2018-09-02T12:35:01.862Z,24.93
2018-09-02T12:36:28.975Z,24.92
2018-09-02T12:37:55.641Z,25.02
2018-09-02T12:39:22.239Z,24.99
2018-09-02T12:40:50.733Z,24.87
2018-09-02T12:42:17.330Z,24.82
2018-09-02T12:43:44.906Z,24.81
2018-09-02T12:45:13.683Z,24.78
2018-09-02T12:46:39.134Z,24.63
2018-09-02T12:48:06.833Z,24.56
2018-09-02T12:49:33.334Z,24.56
2018-09-02T12:51:00.747Z,24.65
2018-09-02T12:52:29.345Z,24.87
2018-09-02T12:53:54.819Z,25.04
2018-09-02T12:55:22.638Z,25.09
2018-09-02T12:56:50.072Z,25.05
2018-09-02T12:58:17.742Z,25.08
2018-09-02T12:59:46.155Z,25.06
2018-09-02T13:01:12.854Z,24.77
2018-09-02T13:02:40.437Z,24.71
2018-09-02T13:04:06.721Z,24.63
2018-09-02T13:05:34.356Z,24.63
2018-09-02T13:07:02.515Z,24.65
2018-09-02T13:08:30.024Z,24.55
2018-09-02T13:09:57.567Z,24.55
2018-09-02T13:11:25.205Z,24.60
2018-09-02T13:12:51.778Z,24.74
2018-09-02T13:14:20.488Z,24.96
2018-09-02T13:15:48.064Z,25.15
2018-09-02T13:17:15.572Z,25.23
2018-09-02T13:18:41.833Z,25.33
2018-09-02T13:20:11.306Z,25.41
2018-09-02T13:21:35.510Z,25.48
2018-09-02T13:23:04.079Z,25.52
2018-09-02T13:24:31.133Z,25.50
2018-09-02T13:25:58.231Z,25.47
2018-09-02T13:27:24.514Z,25.53
2018-09-02T13:28:50.988Z,25.57
2018-09-02T13:30:19.620Z,25.52
2018-09-02T13:31:46.071Z,25.44
2018-09-02T13:33:12.720Z,25.34
2018-09-02T13:34:41.116Z,25.18
2018-09-02T13:36:06.475Z,24.79
2018-09-02T13:37:34.064Z,24.74
2018-09-02T13:39:00.741Z,24.63
2018-09-02T13:40:28.171Z,24.69
2018-09-02T13:41:55.823Z,24.73
2018-09-02T13:43:22.555Z,24.79
2018-09-02T13:44:50.977Z,24.76
2018-09-02T13:46:17.514Z,24.80
2018-09-02T13:47:45.132Z,24.77
2018-09-02T13:49:12.760Z,24.76
2018-09-02T13:50:40.298Z,24.64
2018-09-02T13:52:08.720Z,24.58
2018-09-02T13:53:36.311Z,24.56
2018-09-02T13:55:03.506Z,24.47
2018-09-02T13:56:30.798Z,24.45
2018-09-02T13:57:56.526Z,24.49
2018-09-02T13:59:24.175Z,24.52
2018-09-02T14:00:52.812Z,24.54
2018-09-02T14:02:20.543Z,24.57
2018-09-02T14:03:47.025Z,24.61
2018-09-02T14:05:13.751Z,24.66
2018-09-02T14:06:42.402Z,24.68
2018-09-02T14:08:08.908Z,24.57
2018-09-02T14:09:36.465Z,24.50
2018-09-02T14:11:04.821Z,24.45
2018-09-02T14:12:31.271Z,24.38
2018-09-02T14:13:58.840Z,24.22
2018-09-02T14:15:25.115Z,24.16
2018-09-02T14:16:52.654Z,24.14
2018-09-02T14:18:21.108Z,24.13
2018-09-02T14:19:46.878Z,24.09
2018-09-02T14:21:14.272Z,24.05
2018-09-02T14:22:42.050Z,23.98
2018-09-02T14:24:09.485Z,23.97
2018-09-02T14:25:37.109Z,23.97
2018-09-02T14:27:04.680Z,23.97
2018-09-02T14:28:32.440Z,23.94
2018-09-02T14:29:59.848Z,23.93
2018-09-02T14:31:27.208Z,23.88
2018-09-02T14:32:55.820Z,23.82
2018-09-02T14:34:22.247Z,23.81
2018-09-02T14:35:50.805Z,23.76
2018-09-02T14:37:18.207Z,23.73
2018-09-02T14:38:45.633Z,23.67
2018-09-02T14:40:13.163Z,23.65
2018-09-02T14:41:40.693Z,23.65
2018-09-02T14:43:07.314Z,23.65
2018-09-02T14:44:35.614Z,23.64
2018-09-02T14:46:03.112Z,23.61
2018-09-02T14:47:29.614Z,23.60
2018-09-02T14:48:56.147Z,23.56
2018-09-02T14:50:23.516Z,23.58
2018-09-02T14:51:52.002Z,23.52
2018-09-02T14:53:18.434Z,23.51
2018-09-02T14:54:45.609Z,23.51
2018-09-02T14:56:12.332Z,23.48
2018-09-02T14:57:38.772Z,23.47
2018-09-02T14:59:05.153Z,23.46
2018-09-02T15:00:32.564Z,23.42
2018-09-02T15:02:00.030Z,23.40
2018-09-02T15:03:27.521Z,23.39
2018-09-02T15:04:55.096Z,23.38
2018-09-02T15:06:21.598Z,23.36
2018-09-02T15:07:49.245Z,23.34
2018-09-02T15:09:15.759Z,23.33
2018-09-02T15:10:43.359Z,23.33
2018-09-02T15:12:11.956Z,23.30
2018-09-02T15:13:38.517Z,23.29
2018-09-02T15:15:07.128Z,23.25
2018-09-02T15:16:32.506Z,23.22
2018-09-02T15:18:00.234Z,23.21
2018-09-02T15:19:27.727Z,23.18
2018-09-02T15:20:56.256Z,23.17
2018-09-02T15:22:21.578Z,23.16
2018-09-02T15:23:50.212Z,23.13
2018-09-02T15:25:16.541Z,23.07
2018-09-02T15:26:43.844Z,23.02
2018-09-02T15:28:11.210Z,23.00
2018-09-02T15:29:38.912Z,22.96
2018-09-02T15:31:06.320Z,22.95
2018-09-02T15:32:33.853Z,22.92
2018-09-02T15:34:01.281Z,22.87
2018-09-02T15:35:28.785Z,22.84
2018-09-02T15:36:57.448Z,22.83
2018-09-02T15:38:25.003Z,22.81
2018-09-02T15:39:51.606Z,22.78
2018-09-02T15:41:18.077Z,22.69
2018-09-02T15:42:45.554Z,22.69
2018-09-02T15:44:14.077Z,22.69
2018-09-02T15:45:40.498Z,22.64
2018-09-02T15:47:07.907Z,22.59
2018-09-02T15:48:35.354Z,22.55
2018-09-02T15:50:02.740Z,22.55
2018-09-02T15:51:30.581Z,22.56
2018-09-02T15:52:55.918Z,22.54
2018-09-02T15:54:23.061Z,22.55
2018-09-02T15:55:50.584Z,22.54
2018-09-02T15:57:17.180Z,22.52
2018-09-02T15:58:44.595Z,22.51
2018-09-02T16:00:11.150Z,22.50
2018-09-02T16:01:38.807Z,22.49
2018-09-02T16:03:07.258Z,22.48
2018-09-02T16:04:33.676Z,22.47
2018-09-02T16:06:01.497Z,22.46
2018-09-02T16:07:28.214Z,22.45
2018-09-02T16:08:54.701Z,22.44
2018-09-02T16:10:22.156Z,22.41
2018-09-02T16:11:48.680Z,22.38
2018-09-02T16:13:16.295Z,22.31
2018-09-02T16:14:43.876Z,22.28
2018-09-02T16:16:11.575Z,22.25
2018-09-02T16:17:39.646Z,22.22
2018-09-02T16:19:05.925Z,22.20
2018-09-02T16:20:32.404Z,22.21
2018-09-02T16:22:00.975Z,22.18
2018-09-02T16:23:27.289Z,22.15
2018-09-02T16:24:54.905Z,22.13
2018-09-02T16:26:20.895Z,22.10
2018-09-02T16:27:49.593Z,22.07
2018-09-02T16:30:42.591Z,22.02
2018-09-02T16:32:10.174Z,21.97
2018-09-02T16:33:37.596Z,21.92
2018-09-02T16:35:05.198Z,21.88
2018-09-02T16:36:31.947Z,21.86
2018-09-02T16:38:00.369Z,21.84
2018-09-02T16:39:26.691Z,21.80
2018-09-02T16:40:57.202Z,21.79
2018-09-02T16:42:20.541Z,21.77
2018-09-02T16:43:46.696Z,21.71
2018-09-02T16:45:14.232Z,21.66
2018-09-02T16:46:41.899Z,21.63
2018-09-02T16:48:09.253Z,21.57
2018-09-02T16:49:36.828Z,21.57
2018-09-02T16:51:04.246Z,21.55
2018-09-02T16:52:31.228Z,21.52
2018-09-02T16:53:57.943Z,21.49
2018-09-02T16:55:26.621Z,21.47
2018-09-02T16:56:53.234Z,21.44
2018-09-02T16:58:19.624Z,21.40
2018-09-02T16:59:49.998Z,21.39
2018-09-02T17:01:13.184Z,21.37
2018-09-02T17:02:39.421Z,21.33
2018-09-02T17:04:06.992Z,21.27
2018-09-02T17:05:34.340Z,21.22
2018-09-02T17:07:01.880Z,21.18
2018-09-02T17:08:29.885Z,21.14
2018-09-02T17:09:55.214Z,21.12
2018-09-02T17:11:22.706Z,21.08
2018-09-02T17:12:49.498Z,21.04
2018-09-02T17:14:16.919Z,20.99
2018-09-02T17:15:44.367Z,20.96
2018-09-02T17:17:10.831Z,20.91
2018-09-02T17:18:37.459Z,20.87
2018-09-02T17:20:04.844Z,20.83
2018-09-02T17:21:32.632Z,20.81
2018-09-02T17:22:59.876Z,20.82
2018-09-02T17:24:26.362Z,20.78
2018-09-02T17:25:53.600Z,20.75
2018-09-02T17:27:23.939Z,20.73
2018-09-02T17:28:48.547Z,20.70
2018-09-02T17:30:16.085Z,20.69
2018-09-02T17:31:43.447Z,20.61
2018-09-02T17:33:10.033Z,20.56
2018-09-02T17:34:37.449Z,20.56
2018-09-02T17:36:06.039Z,20.55
2018-09-02T17:37:30.955Z,20.53
2018-09-02T17:38:58.483Z,20.52
2018-09-02T17:40:26.130Z,20.51
2018-09-02T17:41:53.755Z,20.46
2018-09-02T17:43:21.250Z,20.43
2018-09-02T17:44:49.570Z,20.29
2018-09-02T17:46:16.036Z,20.27
2018-09-02T17:47:44.608Z,20.20
2018-09-02T17:49:11.120Z,20.18
2018-09-02T17:50:38.548Z,20.15
2018-09-02T17:52:34.968Z,20.10
